Time;durP1;ratioP1;P1;durP2;ratioP2;P2;SDS_P1;SDS_P2;PMS_P1;PMS_P2;Temp;Humidity;BMP_temperature;BMP_pressure;BME280_temperature;BME280_humidity;BME280_pressure;Samples;Min_cycle;Max_cycle;Signal;HPM_P1;HPM_P2
2021/10/20 00:02:17;;;;;;;11.38;6.35;;;16.00;99.90;;;;;;5034704;28;20324;-77
2021/10/20 00:04:43;;;;;;;9.50;6.57;;;16.00;99.90;;;;;;5032886;28;20039;-77
2021/10/20 00:07:09;;;;;;;9.73;6.55;;;16.00;99.90;;;;;;5033472;28;20459;-77
2021/10/20 00:09:34;;;;;;;9.55;6.65;;;16.00;99.90;;;;;;5032644;28;20414;-76
2021/10/20 00:12:00;;;;;;;11.50;6.50;;;16.00;99.90;;;;;;5032829;28;20033;-77
2021/10/20 00:14:26;;;;;;;10.55;6.50;;;16.00;99.90;;;;;;5032776;28;20033;-76
2021/10/20 00:16:52;;;;;;;9.15;6.40;;;16.00;99.90;;;;;;5032529;28;20029;-77
2021/10/20 00:19:18;;;;;;;9.57;6.45;;;16.00;99.90;;;;;;5032259;28;20128;-76
2021/10/20 00:21:44;;;;;;;11.30;6.38;;;16.00;99.90;;;;;;5032673;28;20025;-77
2021/10/20 00:24:09;;;;;;;10.23;6.47;;;16.00;99.90;;;;;;5032670;28;20040;-76
2021/10/20 00:26:36;;;;;;;9.90;5.90;;;16.00;99.90;;;;;;5032319;28;20029;-76
2021/10/20 00:29:01;;;;;;;9.35;6.35;;;16.00;99.90;;;;;;5032646;28;20032;-76
2021/10/20 00:31:27;;;;;;;11.15;7.05;;;16.00;99.90;;;;;;5032366;28;20021;-76
2021/10/20 00:33:52;;;;;;;10.23;6.47;;;16.00;99.90;;;;;;5032830;28;20021;-76
2021/10/20 00:36:18;;;;;;;11.25;6.50;;;16.00;99.90;;;;;;5031553;28;20416;-76
2021/10/20 00:38:43;;;;;;;9.05;5.95;;;16.00;99.90;;;;;;5031016;28;20038;-76
2021/10/20 00:41:09;;;;;;;10.52;6.80;;;16.00;99.90;;;;;;5032288;28;20026;-76
2021/10/20 00:43:35;;;;;;;9.30;6.22;;;16.00;99.90;;;;;;5032117;28;20021;-76
2021/10/20 00:46:00;;;;;;;8.23;5.20;;;16.00;99.90;;;;;;5032749;28;20028;-76
2021/10/20 00:48:26;;;;;;;8.07;6.20;;;15.90;99.90;;;;;;5030962;28;20049;-76
2021/10/20 00:50:51;;;;;;;10.75;6.32;;;16.00;99.90;;;;;;5031990;28;20061;-75
2021/10/20 00:53:17;;;;;;;10.18;6.00;;;15.90;99.90;;;;;;5032140;28;20076;-75
2021/10/20 00:55:43;;;;;;;11.85;6.57;;;15.90;99.90;;;;;;5030951;28;20034;-75
2021/10/20 00:58:10;;;;;;;8.32;6.03;;;15.90;99.90;;;;;;5032436;28;20103;-75
2021/10/20 01:00:35;;;;;;;13.73;6.35;;;16.00;99.90;;;;;;5031890;28;20467;-76
2021/10/20 01:03:01;;;;;;;10.77;6.15;;;16.00;99.90;;;;;;5031942;28;20099;-76
2021/10/20 01:05:27;;;;;;;12.82;6.35;;;15.90;99.90;;;;;;5032066;28;20083;-75
2021/10/20 01:07:53;;;;;;;7.93;5.35;;;15.90;99.90;;;;;;5031858;28;20022;-75
2021/10/20 01:10:19;;;;;;;11.13;6.10;;;15.90;99.90;;;;;;5032145;28;20182;-76
2021/10/20 01:12:45;;;;;;;9.20;6.32;;;16.00;99.90;;;;;;5031710;28;20033;-76
2021/10/20 01:15:13;;;;;;;8.93;5.93;;;16.00;99.90;;;;;;5031891;28;20128;-76
2021/10/20 01:17:40;;;;;;;9.52;5.80;;;16.00;99.90;;;;;;5031659;28;20558;-75
2021/10/20 01:20:07;;;;;;;7.63;5.53;;;16.00;99.90;;;;;;5031913;28;20041;-76
2021/10/20 01:22:33;;;;;;;9.50;6.28;;;16.00;99.90;;;;;;5031568;28;20025;-76
2021/10/20 01:25:00;;;;;;;8.13;6.05;;;16.00;99.90;;;;;;5031930;28;20025;-75
2021/10/20 01:27:26;;;;;;;13.77;6.68;;;16.00;99.90;;;;;;5031677;28;20029;-76
2021/10/20 01:29:52;;;;;;;9.32;6.30;;;16.00;99.90;;;;;;5031318;28;20120;-75
2021/10/20 01:32:17;;;;;;;8.95;5.78;;;15.90;99.90;;;;;;5031364;28;20124;-76
2021/10/20 01:34:43;;;;;;;8.55;5.65;;;16.00;99.90;;;;;;5031282;28;20060;-77
2021/10/20 01:37:09;;;;;;;11.70;6.22;;;15.90;99.90;;;;;;5050858;28;20068;-77
2021/10/20 01:39:35;;;;;;;7.38;5.15;;;15.90;99.90;;;;;;5051153;28;20029;-76
2021/10/20 01:42:02;;;;;;;7.07;5.10;;;15.90;99.90;;;;;;5051274;28;20154;-77
2021/10/20 01:44:27;;;;;;;8.40;5.93;;;15.90;99.90;;;;;;5051148;28;20561;-76
2021/10/20 01:46:53;;;;;;;7.63;5.40;;;15.90;99.90;;;;;;5051282;28;20029;-77
2021/10/20 01:49:18;;;;;;;10.77;6.47;;;15.90;99.90;;;;;;5051691;28;20036;-76
2021/10/20 01:51:44;;;;;;;7.30;5.15;;;15.90;99.90;;;;;;5051114;28;20037;-77
2021/10/20 01:54:11;;;;;;;8.48;5.55;;;15.90;99.90;;;;;;5051236;28;20079;-77
2021/10/20 01:56:37;;;;;;;11.77;5.83;;;15.80;99.90;;;;;;5051141;28;20366;-77
2021/10/20 01:59:02;;;;;;;11.63;5.93;;;15.80;99.90;;;;;;5049805;28;20152;-77
2021/10/20 02:01:28;;;;;;;8.70;5.82;;;15.80;99.90;;;;;;5051301;28;20040;-77
2021/10/20 02:03:54;;;;;;;9.57;5.95;;;15.80;99.90;;;;;;5051333;28;20044;-76
2021/10/20 02:06:19;;;;;;;7.63;5.53;;;15.80;99.90;;;;;;5050801;28;20060;-77
2021/10/20 02:08:46;;;;;;;7.25;4.93;;;15.80;99.90;;;;;;5050668;28;20064;-77
2021/10/20 02:11:13;;;;;;;9.05;6.05;;;15.80;99.90;;;;;;5050924;28;20044;-76
2021/10/20 02:13:40;;;;;;;7.80;5.53;;;15.80;99.90;;;;;;5050894;28;20027;-77
2021/10/20 02:16:06;;;;;;;9.45;6.07;;;15.70;99.90;;;;;;5051737;28;20104;-77
2021/10/20 02:18:32;;;;;;;10.48;6.22;;;15.80;99.90;;;;;;5050935;28;20037;-77
2021/10/20 02:20:59;;;;;;;8.32;5.30;;;15.70;99.90;;;;;;5050763;28;20026;-76
2021/10/20 02:23:25;;;;;;;7.90;5.85;;;15.70;99.90;;;;;;5050919;28;20065;-76
2021/10/20 02:25:50;;;;;;;7.38;4.95;;;15.60;99.90;;;;;;5050864;28;20021;-76
2021/10/20 02:28:16;;;;;;;10.75;5.93;;;15.60;99.90;;;;;;5052825;28;20622;-76
2021/10/20 02:30:42;;;;;;;8.30;5.63;;;15.60;99.90;;;;;;5050625;28;20120;-75
2021/10/20 02:33:09;;;;;;;9.25;5.32;;;15.50;99.90;;;;;;5050585;28;20033;-76
2021/10/20 02:35:35;;;;;;;11.47;5.63;;;15.50;99.90;;;;;;5050679;28;20510;-76
2021/10/20 02:38:01;;;;;;;8.13;5.50;;;15.50;99.90;;;;;;5050359;28;20049;-77
2021/10/20 02:40:27;;;;;;;6.95;5.57;;;15.50;99.90;;;;;;5050801;28;20020;-76
2021/10/20 02:42:53;;;;;;;8.90;5.13;;;15.40;99.90;;;;;;5054230;28;20017;-76
2021/10/20 02:45:19;;;;;;;6.63;4.90;;;15.40;99.90;;;;;;5054563;28;20029;-77
2021/10/20 02:47:45;;;;;;;8.65;5.40;;;15.40;99.90;;;;;;5053264;28;20051;-77
2021/10/20 02:50:10;;;;;;;8.48;5.38;;;15.40;99.90;;;;;;5054343;28;20064;-77
2021/10/20 02:52:36;;;;;;;7.55;4.88;;;15.40;99.90;;;;;;5054435;28;20017;-77
2021/10/20 02:55:04;;;;;;;8.27;4.40;;;15.40;99.90;;;;;;5054570;28;20032;-75
2021/10/20 02:57:30;;;;;;;6.10;4.13;;;15.50;99.90;;;;;;5054241;28;20485;-76
2021/10/20 02:59:57;;;;;;;7.38;4.70;;;15.50;99.90;;;;;;5053878;28;20040;-76
2021/10/20 03:02:23;;;;;;;9.40;5.82;;;15.40;99.90;;;;;;5054104;28;20028;-76
2021/10/20 03:04:49;;;;;;;9.23;5.18;;;15.50;99.90;;;;;;5054020;28;20033;-76
2021/10/20 03:07:15;;;;;;;12.15;5.95;;;15.50;99.80;;;;;;5054643;28;20090;-75
2021/10/20 03:09:40;;;;;;;10.40;4.93;;;15.50;99.70;;;;;;5053919;28;20103;-76
2021/10/20 03:12:06;;;;;;;7.05;4.40;;;15.50;99.60;;;;;;5053848;28;20033;-76
2021/10/20 03:14:31;;;;;;;7.05;4.00;;;15.60;99.60;;;;;;5054068;28;20036;-74
2021/10/20 03:16:57;;;;;;;8.52;4.90;;;15.60;99.50;;;;;;5053945;28;20209;-75
2021/10/20 03:19:22;;;;;;;6.88;4.88;;;15.60;99.50;;;;;;5052552;28;20057;-72
2021/10/20 03:21:48;;;;;;;6.78;4.28;;;15.60;99.50;;;;;;5054479;28;20462;-75
2021/10/20 03:24:14;;;;;;;7.78;4.30;;;15.60;99.40;;;;;;5052521;28;20044;-76
2021/10/20 03:26:40;;;;;;;9.93;4.72;;;15.60;99.40;;;;;;5052751;28;20515;-75
2021/10/20 03:29:06;;;;;;;9.10;4.65;;;15.60;99.30;;;;;;5053459;28;20129;-76
2021/10/20 03:31:31;;;;;;;6.38;4.20;;;15.60;99.30;;;;;;5053596;28;20021;-76
2021/10/20 03:33:57;;;;;;;7.05;4.28;;;15.60;99.10;;;;;;5053775;28;20047;-76
2021/10/20 03:36:23;;;;;;;11.18;4.47;;;15.60;99.20;;;;;;5053303;28;20445;-76
2021/10/20 03:38:48;;;;;;;6.32;4.00;;;15.60;99.10;;;;;;5053192;28;20051;-76
2021/10/20 03:41:14;;;;;;;9.30;5.13;;;15.60;99.10;;;;;;5053520;28;20021;-77
2021/10/20 03:43:39;;;;;;;7.78;4.43;;;15.60;99.10;;;;;;5053376;28;20147;-77
2021/10/20 03:46:06;;;;;;;9.15;5.10;;;15.60;99.10;;;;;;5053941;28;20029;-76
2021/10/20 03:48:32;;;;;;;6.97;4.18;;;15.60;99.10;;;;;;5053319;28;20033;-76
2021/10/20 03:50:58;;;;;;;8.45;4.53;;;15.60;99.10;;;;;;5053162;28;20037;-77
2021/10/20 03:53:23;;;;;;;8.45;4.75;;;15.60;99.10;;;;;;5053135;28;20367;-76
2021/10/20 03:55:49;;;;;;;6.32;4.38;;;15.60;99.10;;;;;;5053027;28;20035;-77
2021/10/20 03:58:14;;;;;;;6.72;4.25;;;15.60;99.00;;;;;;5053729;28;20028;-76
2021/10/20 04:00:40;;;;;;;9.23;4.80;;;15.60;99.00;;;;;;5053116;28;20025;-77
2021/10/20 04:03:06;;;;;;;7.25;4.57;;;15.50;99.00;;;;;;5052879;28;20114;-75
2021/10/20 04:05:31;;;;;;;7.55;4.15;;;15.50;99.00;;;;;;5053179;28;20486;-77
2021/10/20 04:07:57;;;;;;;6.25;4.65;;;15.50;98.90;;;;;;5052854;28;20025;-76
2021/10/20 04:10:25;;;;;;;9.52;4.63;;;15.60;98.90;;;;;;5052443;28;20138;-74
2021/10/20 04:12:52;;;;;;;9.77;4.35;;;15.50;98.80;;;;;;5052295;28;20029;-76
2021/10/20 04:15:21;;;;;;;9.55;4.22;;;15.50;98.80;;;;;;5052762;28;20025;-76
2021/10/20 04:17:47;;;;;;;6.20;4.32;;;15.50;98.80;;;;;;5052961;28;20060;-76
2021/10/20 04:20:15;;;;;;;6.35;4.30;;;15.50;98.80;;;;;;5051458;28;20047;-75
2021/10/20 04:22:42;;;;;;;5.38;4.10;;;15.50;98.70;;;;;;5052444;28;20025;-76
2021/10/20 04:25:08;;;;;;;6.60;4.13;;;15.60;98.70;;;;;;5052714;28;20028;-76
2021/10/20 04:27:35;;;;;;;6.45;4.00;;;15.60;98.60;;;;;;5052722;28;20037;-77
2021/10/20 04:30:00;;;;;;;7.28;4.70;;;15.60;98.50;;;;;;5052500;28;20036;-77
2021/10/20 04:32:27;;;;;;;6.32;4.28;;;15.60;98.50;;;;;;5052339;28;20481;-77
2021/10/20 04:34:53;;;;;;;7.70;4.10;;;15.60;98.40;;;;;;5052804;28;20029;-77
2021/10/20 04:37:24;;;;;;;6.50;3.67;;;15.60;98.30;;;;;;5052660;28;20402;-76
2021/10/20 04:39:59;;;;;;;7.18;4.38;;;15.60;98.30;;;;;;5052655;28;20033;-76
2021/10/20 04:42:26;;;;;;;8.48;4.35;;;15.70;98.20;;;;;;5052062;28;20526;-77
2021/10/20 04:44:55;;;;;;;8.65;4.40;;;15.70;98.10;;;;;;5052282;28;20052;-75
2021/10/20 04:47:21;;;;;;;6.95;4.25;;;15.70;98.20;;;;;;5052163;28;20039;-77
2021/10/20 04:49:48;;;;;;;6.00;3.60;;;15.70;98.10;;;;;;5051123;28;20112;-77
2021/10/20 04:52:14;;;;;;;5.80;4.13;;;15.70;98.00;;;;;;5052409;28;20024;-76
2021/10/20 04:54:39;;;;;;;10.48;4.75;;;15.70;98.00;;;;;;5053366;28;20070;-76
2021/10/20 04:57:06;;;;;;;5.30;3.80;;;15.70;97.90;;;;;;5051868;28;20037;-78
2021/10/20 04:59:33;;;;;;;6.97;4.05;;;15.70;97.90;;;;;;5051663;28;20049;-77
2021/10/20 05:02:03;;;;;;;7.18;3.95;;;15.80;98.10;;;;;;5050674;28;20041;-77
2021/10/20 05:04:29;;;;;;;6.97;4.30;;;15.80;97.80;;;;;;5050084;28;20032;-75
2021/10/20 05:06:55;;;;;;;7.88;3.97;;;15.80;97.70;;;;;;5052357;28;20028;-71
2021/10/20 05:09:21;;;;;;;7.88;4.22;;;15.80;97.50;;;;;;5051401;28;20057;-73
2021/10/20 05:11:46;;;;;;;6.80;3.95;;;15.80;97.40;;;;;;5051249;28;20057;-74
2021/10/20 05:14:12;;;;;;;4.95;3.78;;;15.90;97.40;;;;;;5051633;28;20048;-74
2021/10/20 05:16:37;;;;;;;5.65;3.70;;;15.90;97.20;;;;;;5051354;28;20064;-74
2021/10/20 05:19:03;;;;;;;6.70;3.92;;;15.90;97.10;;;;;;5051516;28;20032;-74
2021/10/20 05:21:28;;;;;;;9.88;4.43;;;15.90;97.10;;;;;;5051271;28;20047;-74
2021/10/20 05:23:54;;;;;;;10.70;4.25;;;16.00;97.00;;;;;;5051410;28;20029;-73
2021/10/20 05:26:20;;;;;;;6.93;4.13;;;16.00;96.90;;;;;;5051091;28;20465;-73
2021/10/20 05:28:46;;;;;;;8.38;4.25;;;16.00;96.80;;;;;;5051276;28;20164;-74
2021/10/20 05:31:11;;;;;;;5.35;4.05;;;16.10;96.80;;;;;;5051532;28;20117;-75
2021/10/20 05:33:38;;;;;;;5.60;3.72;;;16.10;96.50;;;;;;5051298;28;20474;-75
2021/10/20 05:36:05;;;;;;;5.93;3.85;;;16.20;96.40;;;;;;5051229;28;20486;-74
2021/10/20 05:38:31;;;;;;;9.93;3.85;;;16.20;96.30;;;;;;5050887;28;20037;-75
2021/10/20 05:40:56;;;;;;;8.70;3.90;;;16.20;96.20;;;;;;5050959;28;20017;-74
2021/10/20 05:43:22;;;;;;;7.43;4.13;;;16.20;96.30;;;;;;5050842;28;20032;-74
2021/10/20 05:45:48;;;;;;;10.45;4.40;;;16.30;96.10;;;;;;5051869;28;20029;-74
2021/10/20 05:48:15;;;;;;;11.68;4.63;;;16.30;96.10;;;;;;5047067;28;20026;-73
2021/10/20 05:50:41;;;;;;;6.30;4.43;;;16.30;95.80;;;;;;5031077;28;20121;-72
2021/10/20 05:53:07;;;;;;;8.77;4.50;;;16.40;95.70;;;;;;5030594;28;20025;-73
2021/10/20 05:55:32;;;;;;;7.38;4.22;;;16.40;95.60;;;;;;5030692;28;20360;-73
2021/10/20 05:57:58;;;;;;;8.32;4.50;;;16.40;95.70;;;;;;5030249;28;20064;-71
2021/10/20 06:00:26;;;;;;;8.43;4.30;;;16.50;95.60;;;;;;5029316;28;20042;-73
2021/10/20 06:02:52;;;;;;;5.40;3.90;;;16.50;95.50;;;;;;5030759;28;20030;-72
2021/10/20 06:05:17;;;;;;;11.25;4.65;;;16.50;95.50;;;;;;5029325;28;20067;-72
2021/10/20 06:07:45;;;;;;;7.40;4.82;;;16.50;95.50;;;;;;5030564;28;20037;-72
2021/10/20 06:10:12;;;;;;;10.55;4.57;;;16.50;95.40;;;;;;5030821;28;20399;-73
2021/10/20 06:12:39;;;;;;;11.93;4.35;;;16.60;95.40;;;;;;5030474;28;20161;-72
2021/10/20 06:15:06;;;;;;;9.43;5.07;;;16.60;95.30;;;;;;5030685;28;20256;-73
2021/10/20 06:17:33;;;;;;;9.93;5.15;;;16.60;95.20;;;;;;5033005;28;20033;-72
2021/10/20 06:19:59;;;;;;;12.68;5.88;;;16.60;95.30;;;;;;5034648;28;20099;-72
2021/10/20 06:22:24;;;;;;;6.22;4.43;;;16.60;95.10;;;;;;5034568;28;20396;-72
2021/10/20 06:24:50;;;;;;;11.45;5.68;;;16.70;95.10;;;;;;5035131;28;20025;-73
2021/10/20 06:27:15;;;;;;;8.50;5.07;;;16.70;95.10;;;;;;5034692;28;20083;-71
2021/10/20 06:29:41;;;;;;;13.05;4.95;;;16.60;95.10;;;;;;5034614;28;20021;-73
2021/10/20 06:32:06;;;;;;;14.82;4.22;;;16.60;95.10;;;;;;5034398;28;20037;-71
2021/10/20 06:34:32;;;;;;;7.70;4.10;;;16.60;95.00;;;;;;5034387;28;20107;-72
2021/10/20 06:36:58;;;;;;;6.70;4.18;;;16.60;95.00;;;;;;5034842;28;20474;-73
2021/10/20 06:39:24;;;;;;;7.18;4.28;;;16.60;95.00;;;;;;5034453;28;20033;-72
2021/10/20 06:41:51;;;;;;;8.30;4.68;;;16.60;95.00;;;;;;5034231;28;20026;-73
2021/10/20 06:44:17;;;;;;;7.25;4.40;;;16.70;95.00;;;;;;5034404;28;20030;-73
2021/10/20 06:46:42;;;;;;;7.22;3.92;;;16.70;95.10;;;;;;5033970;28;20083;-72
2021/10/20 06:49:08;;;;;;;7.10;4.65;;;16.70;95.00;;;;;;5034392;28;20033;-72
2021/10/20 06:51:34;;;;;;;9.18;4.25;;;16.70;95.00;;;;;;5033789;28;20044;-72
2021/10/20 06:54:00;;;;;;;9.30;4.63;;;16.70;95.00;;;;;;5033782;28;20029;-73
2021/10/20 06:56:25;;;;;;;9.50;4.28;;;16.70;94.90;;;;;;5032604;28;20060;-74
2021/10/20 06:58:51;;;;;;;9.20;4.38;;;16.70;95.00;;;;;;5032449;28;20045;-73
2021/10/20 07:01:17;;;;;;;6.38;4.28;;;16.70;95.00;;;;;;5033980;28;20379;-72
2021/10/20 07:03:44;;;;;;;10.07;5.13;;;16.60;95.00;;;;;;5032683;28;20285;-73
2021/10/20 07:06:10;;;;;;;8.23;5.00;;;16.60;95.10;;;;;;5033471;28;20029;-72
2021/10/20 07:08:35;;;;;;;10.38;4.35;;;16.60;95.00;;;;;;5033415;28;20033;-73
2021/10/20 07:11:01;;;;;;;7.68;4.30;;;16.60;95.10;;;;;;5032658;28;20120;-72
2021/10/20 07:13:26;;;;;;;7.68;4.22;;;16.70;95.10;;;;;;5031977;28;20049;-72
2021/10/20 07:15:53;;;;;;;7.70;4.32;;;16.70;95.10;;;;;;5032545;28;20435;-73
2021/10/20 07:18:19;;;;;;;15.38;6.00;;;16.70;95.00;;;;;;5031028;28;20033;-70
2021/10/20 07:20:45;;;;;;;9.35;4.82;;;16.70;95.00;;;;;;5032281;28;20034;-72
2021/10/20 07:23:11;;;;;;;10.43;5.03;;;16.70;94.80;;;;;;5032058;28;20562;-73
2021/10/20 07:25:36;;;;;;;6.88;4.50;;;16.70;95.10;;;;;;5031183;28;20018;-71
2021/10/20 07:28:02;;;;;;;7.10;4.63;;;16.70;94.90;;;;;;5032046;28;20101;-72
2021/10/20 07:30:28;;;;;;;7.88;4.55;;;16.70;94.90;;;;;;5032132;28;20100;-73
2021/10/20 07:32:53;;;;;;;8.02;4.55;;;16.70;94.90;;;;;;5032026;28;20029;-73
2021/10/20 07:35:19;;;;;;;6.97;4.78;;;16.70;94.80;;;;;;5031878;28;20384;-73
2021/10/20 07:37:45;;;;;;;7.90;4.90;;;16.70;94.90;;;;;;5031727;28;20029;-72
2021/10/20 07:40:13;;;;;;;6.68;4.43;;;16.70;94.70;;;;;;5031836;28;20029;-73
2021/10/20 07:42:40;;;;;;;9.52;5.30;;;16.70;94.80;;;;;;5031382;28;20037;-73
2021/10/20 07:45:10;;;;;;;13.82;6.90;;;16.80;94.80;;;;;;5031694;28;20109;-72
2021/10/20 07:47:36;;;;;;;9.32;5.97;;;16.80;94.80;;;;;;5031566;28;20091;-72
2021/10/20 07:50:04;;;;;;;13.35;5.78;;;16.70;94.70;;;;;;5030746;28;20095;-70
2021/10/20 07:52:29;;;;;;;7.25;4.95;;;16.80;94.70;;;;;;5030403;28;20022;-72
2021/10/20 07:54:55;;;;;;;9.52;4.82;;;16.80;94.80;;;;;;5031052;28;20021;-72
2021/10/20 07:57:21;;;;;;;7.07;4.90;;;16.80;94.60;;;;;;5031438;28;20032;-73
2021/10/20 07:59:47;;;;;;;10.68;5.15;;;16.80;94.60;;;;;;5030054;28;20029;-72
2021/10/20 08:02:13;;;;;;;6.13;4.28;;;16.80;94.60;;;;;;5031775;28;20422;-72
2021/10/20 08:04:39;;;;;;;11.63;4.90;;;16.80;94.50;;;;;;5031641;28;20599;-74
2021/10/20 08:07:04;;;;;;;9.30;4.97;;;16.80;94.40;;;;;;5030534;28;20479;-74
2021/10/20 08:09:30;;;;;;;10.35;4.30;;;16.80;94.40;;;;;;5031110;28;20117;-71
2021/10/20 08:11:56;;;;;;;8.00;4.55;;;16.80;94.40;;;;;;4991486;28;1128054;-73
2021/10/20 08:14:21;;;;;;;7.82;4.55;;;16.80;94.30;;;;;;5032315;28;20038;-72
2021/10/20 08:16:47;;;;;;;6.55;4.38;;;16.80;94.30;;;;;;5031940;28;20115;-72
2021/10/20 08:19:15;;;;;;;8.93;5.05;;;16.80;94.20;;;;;;5032497;28;20041;-72
2021/10/20 08:21:41;;;;;;;5.35;4.20;;;16.90;94.30;;;;;;5031894;28;20029;-72
2021/10/20 08:24:06;;;;;;;9.75;4.50;;;16.90;94.10;;;;;;5031872;28;20022;-73
2021/10/20 08:26:32;;;;;;;8.48;4.75;;;16.90;94.10;;;;;;5031989;28;20034;-74
2021/10/20 08:28:57;;;;;;;12.55;6.38;;;16.90;94.00;;;;;;5031946;28;20443;-73
2021/10/20 08:31:23;;;;;;;9.93;4.88;;;16.90;94.00;;;;;;5031816;28;20025;-73
2021/10/20 08:33:49;;;;;;;7.72;4.43;;;16.90;94.00;;;;;;5032299;28;20053;-72
2021/10/20 08:36:14;;;;;;;12.10;4.68;;;16.90;93.80;;;;;;5030595;28;20095;-73
2021/10/20 08:38:40;;;;;;;7.82;3.95;;;17.00;93.90;;;;;;5030154;28;20033;-73
2021/10/20 08:41:09;;;;;;;6.72;4.35;;;17.00;93.90;;;;;;5030626;28;20026;-73
2021/10/20 08:43:35;;;;;;;8.13;4.68;;;17.00;93.70;;;;;;5022657;28;20025;-72
2021/10/20 08:46:01;;;;;;;5.78;4.25;;;17.00;93.80;;;;;;5046070;28;20352;-72
2021/10/20 08:48:29;;;;;;;7.22;4.43;;;17.10;93.90;;;;;;5030571;28;20084;-73
2021/10/20 08:50:56;;;;;;;;;;;17.00;93.60;;;;;;5030749;28;20415;-72
2021/10/20 08:53:22;;;;;;;6.68;4.18;;;17.10;93.60;;;;;;5031458;28;19959;-75
2021/10/20 08:55:50;;;;;;;6.35;4.25;;;17.10;93.60;;;;;;5031184;28;20035;-72
2021/10/20 08:58:16;;;;;;;8.57;4.28;;;17.10;93.40;;;;;;5031680;28;20130;-72
2021/10/20 09:00:43;;;;;;;7.97;4.00;;;17.20;93.60;;;;;;5031391;28;20041;-72
2021/10/20 09:03:09;;;;;;;9.07;6.18;;;17.20;93.60;;;;;;5030204;28;20034;-72
2021/10/20 09:05:35;;;;;;;7.68;4.60;;;17.20;93.70;;;;;;5031121;28;20088;-72
2021/10/20 09:08:00;;;;;;;9.88;4.97;;;17.30;93.40;;;;;;5031239;28;20049;-72
2021/10/20 09:10:29;;;;;;;6.22;4.28;;;17.30;93.30;;;;;;5031035;28;20045;-73
2021/10/20 09:12:59;;;;;;;6.13;3.70;;;17.40;93.20;;;;;;5031568;28;20028;-72
2021/10/20 09:15:29;;;;;;;6.13;4.07;;;17.40;93.20;;;;;;5031126;28;20097;-72
2021/10/20 09:18:00;;;;;;;7.07;4.22;;;17.40;93.20;;;;;;5031139;28;20546;-72
2021/10/20 09:20:29;;;;;;;7.32;3.83;;;17.50;93.20;;;;;;5030932;28;20142;-73
2021/10/20 09:22:59;;;;;;;8.95;5.55;;;17.50;93.20;;;;;;5029634;28;20056;-71
2021/10/20 09:25:31;;;;;;;7.78;4.65;;;17.50;93.10;;;;;;5029627;28;20026;-73
2021/10/20 09:27:57;;;;;;;8.18;4.10;;;17.50;93.10;;;;;;5031299;28;20025;-71
2021/10/20 09:30:22;;;;;;;9.25;3.88;;;17.50;93.00;;;;;;5029653;28;20044;-72
2021/10/20 09:32:50;;;;;;;9.80;3.88;;;17.50;93.10;;;;;;5029329;28;20033;-73
2021/10/20 09:35:16;;;;;;;6.70;4.18;;;17.50;93.10;;;;;;5030889;28;20309;-72
2021/10/20 09:37:42;;;;;;;5.38;3.60;;;17.50;93.20;;;;;;5030792;28;20079;-72
2021/10/20 09:40:10;;;;;;;10.05;3.85;;;17.50;93.30;;;;;;5031103;28;20122;-72
2021/10/20 09:42:47;;;;;;;7.95;4.45;;;17.60;93.30;;;;;;5030486;28;20332;-72
2021/10/20 09:45:15;;;;;;;6.63;3.97;;;17.70;93.20;;;;;;5030438;28;20033;-72
2021/10/20 09:47:41;;;;;;;8.07;4.63;;;17.70;93.20;;;;;;5030737;28;20030;-72
2021/10/20 09:50:07;;;;;;;9.98;3.75;;;17.70;93.20;;;;;;5030500;28;20068;-75
2021/10/20 09:52:45;;;;;;;9.60;4.03;;;17.80;93.30;;;;;;5029511;28;20037;-76
2021/10/20 09:55:30;;;;;;;;;;;17.80;93.10;;;;;;5031307;28;20026;-75
2021/10/20 09:58:02;;;;;;;5.55;3.72;;;18.30;93.10;;;;;;5029400;28;19920;-74
2021/10/20 10:00:28;;;;;;;6.28;3.53;;;18.90;92.70;;;;;;5029177;28;20049;-75
2021/10/20 10:02:55;;;;;;;7.55;3.83;;;19.60;91.90;;;;;;5030446;28;20475;-75
2021/10/20 10:05:21;;;;;;;5.88;3.47;;;20.30;91.50;;;;;;5030551;28;20041;-75
2021/10/20 10:07:47;;;;;;;5.40;3.33;;;20.70;90.80;;;;;;5030328;28;20026;-75
2021/10/20 10:10:13;;;;;;;5.32;3.15;;;20.60;90.70;;;;;;5029612;28;20037;-76
2021/10/20 10:12:41;;;;;;;5.25;2.90;;;21.20;90.90;;;;;;5030061;28;20133;-75
2021/10/20 10:15:13;;;;;;;8.43;3.60;;;21.30;90.00;;;;;;5030533;28;20108;-74
2021/10/20 10:17:41;;;;;;;4.90;3.10;;;21.00;89.50;;;;;;5030331;28;20307;-74
2021/10/20 10:20:17;;;;;;;;;;;20.60;90.00;;;;;;5031197;28;20036;-74
2021/10/20 10:22:51;;;;;;;7.28;4.00;;;20.40;90.30;;;;;;5030404;28;19919;-74
2021/10/20 10:25:41;;;;;;;5.95;3.60;;;20.10;90.50;;;;;;5030770;28;20127;-74
2021/10/20 10:28:24;;;;;;;10.35;3.40;;;20.00;90.70;;;;;;5028627;28;20064;-73
2021/10/20 10:30:53;;;;;;;5.60;3.45;;;19.60;90.90;;;;;;5028763;28;20663;-75
2021/10/20 10:33:27;;;;;;;6.57;3.10;;;19.50;91.20;;;;;;5029824;28;20040;-74
2021/10/20 10:36:04;;;;;;;5.97;3.08;;;19.40;91.50;;;;;;5030002;28;20030;-74
2021/10/20 10:39:12;;;;;;;6.55;3.13;;;19.30;91.70;;;;;;5028858;28;20340;-75
2021/10/20 10:41:45;;;;;;;7.18;3.97;;;19.30;91.90;;;;;;4969050;28;20039;-74
2021/10/20 10:44:13;;;;;;;5.10;3.35;;;19.20;92.00;;;;;;5020743;28;20033;-75
2021/10/20 10:47:18;;;;;;;7.10;4.00;;;19.10;92.20;;;;;;5030210;28;20040;-74
2021/10/20 10:49:55;;;;;;;8.85;3.60;;;19.00;92.30;;;;;;5028863;28;20037;-75
2021/10/20 10:52:39;;;;;;;8.73;4.15;;;19.00;92.40;;;;;;5030493;28;20017;-75
2021/10/20 10:55:17;;;;;;;11.13;3.55;;;18.90;92.50;;;;;;5030220;28;20042;-74
2021/10/20 10:57:56;;;;;;;7.35;3.63;;;18.90;92.70;;;;;;5030111;28;20048;-74
2021/10/20 11:00:22;;;;;;;6.20;3.55;;;18.90;92.80;;;;;;5030031;28;20041;-74
2021/10/20 11:02:55;;;;;;;7.13;3.75;;;18.90;92.90;;;;;;5031254;28;20037;-74
2021/10/20 11:05:32;;;;;;;5.10;3.65;;;18.90;93.00;;;;;;5033554;28;20038;-76
2021/10/20 11:08:12;;;;;;;7.07;4.30;;;18.90;93.00;;;;;;5033421;28;20029;-77
2021/10/20 11:10:40;;;;;;;10.15;3.53;;;18.90;93.10;;;;;;5033167;28;20052;-76
2021/10/20 11:13:06;;;;;;;5.95;3.88;;;18.90;93.00;;;;;;5033948;28;20028;-76
2021/10/20 11:15:33;;;;;;;8.00;3.55;;;18.90;93.10;;;;;;5033538;28;20363;-75
2021/10/20 11:17:59;;;;;;;7.30;3.65;;;18.90;93.20;;;;;;5033467;28;20026;-76
2021/10/20 11:20:29;;;;;;;6.30;4.15;;;18.90;93.30;;;;;;5033381;28;20340;-75
2021/10/20 11:22:59;;;;;;;11.77;4.28;;;18.90;93.30;;;;;;5033302;28;20029;-76
2021/10/20 11:25:25;;;;;;;6.93;3.83;;;18.90;93.30;;;;;;5032982;28;20333;-76
2021/10/20 11:27:53;;;;;;;15.50;3.95;;;18.90;93.30;;;;;;5033699;28;20040;-76
2021/10/20 11:30:22;;;;;;;5.50;3.78;;;18.80;93.30;;;;;;5033170;28;20141;-78
2021/10/20 11:32:48;;;;;;;10.90;4.13;;;18.90;93.40;;;;;;5032990;28;20128;-76
2021/10/20 11:35:20;;;;;;;6.43;3.75;;;18.90;93.40;;;;;;5032972;28;20169;-77
2021/10/20 11:37:53;;;;;;;5.68;3.80;;;18.80;93.40;;;;;;5031819;28;20054;-76
2021/10/20 11:40:20;;;;;;;9.77;3.35;;;18.90;93.50;;;;;;5033420;28;20076;-76
2021/10/20 11:42:46;;;;;;;5.13;3.60;;;18.80;93.50;;;;;;5032683;28;20030;-79
2021/10/20 11:45:12;;;;;;;6.72;3.53;;;18.90;93.60;;;;;;5032883;28;20025;-77
2021/10/20 11:47:40;;;;;;;6.85;3.97;;;18.90;93.50;;;;;;5031756;28;20043;-78
2021/10/20 11:50:10;;;;;;;6.05;3.83;;;18.80;93.60;;;;;;5032602;28;20037;-78
2021/10/20 11:52:35;;;;;;;8.90;4.30;;;18.80;93.70;;;;;;5031429;28;20018;-77
2021/10/20 11:55:04;;;;;;;9.00;4.32;;;18.80;93.70;;;;;;5032941;28;20092;-77
2021/10/20 11:57:30;;;;;;;8.52;4.05;;;18.80;93.70;;;;;;5031439;28;20171;-78
2021/10/20 11:59:56;;;;;;;8.05;3.80;;;18.90;93.70;;;;;;5032496;28;20064;-76
2021/10/20 12:02:30;;;;;;;13.73;5.72;;;18.80;93.70;;;;;;5033165;28;20124;-76
2021/10/20 12:04:56;;;;;;;10.80;4.80;;;18.80;93.60;;;;;;5051302;28;20108;-78
2021/10/20 12:07:29;;;;;;;6.82;4.05;;;18.80;93.60;;;;;;5051130;28;20029;-72
2021/10/20 12:09:55;;;;;;;10.43;3.92;;;18.70;93.60;;;;;;5051627;28;20021;-76
2021/10/20 12:12:20;;;;;;;8.05;4.28;;;18.70;93.60;;;;;;5051585;28;20071;-79
2021/10/20 12:14:47;;;;;;;16.27;4.65;;;18.70;93.80;;;;;;5051618;28;20086;-78
2021/10/20 12:17:14;;;;;;;9.15;3.85;;;18.70;94.20;;;;;;5052195;28;20056;-78
2021/10/20 12:19:42;;;;;;;8.63;4.50;;;18.70;94.10;;;;;;5052077;28;20175;-78
2021/10/20 12:22:09;;;;;;;;;;;18.70;94.20;;;;;;5051910;28;20024;-77
2021/10/20 12:24:37;;;;;;;8.33;4.20;;;18.70;94.30;;;;;;5050919;28;19991;-77
2021/10/20 12:27:05;;;;;;;7.82;4.20;;;18.70;94.30;;;;;;5052046;28;20077;-77
2021/10/20 12:29:45;;;;;;;6.78;4.10;;;18.60;94.30;;;;;;5050576;28;20490;-78
2021/10/20 12:32:19;;;;;;;7.15;4.03;;;18.60;94.30;;;;;;5031278;28;20029;-78
2021/10/20 12:35:11;;;;;;;9.40;3.95;;;18.60;94.30;;;;;;5031980;28;20492;-77
2021/10/20 12:37:40;;;;;;;7.95;4.65;;;18.50;94.40;;;;;;5032353;28;20029;-77
2021/10/20 12:40:12;;;;;;;10.30;4.68;;;18.50;94.40;;;;;;5032693;28;20021;-76
2021/10/20 12:42:44;;;;;;;6.97;4.50;;;18.60;94.40;;;;;;5032313;28;20090;-77
2021/10/20 12:45:11;;;;;;;8.43;4.50;;;18.60;94.60;;;;;;5031724;28;20037;-76
2021/10/20 12:47:43;;;;;;;7.32;5.25;;;18.50;94.40;;;;;;5030876;28;20371;-77